createdAt,value
2022-08-23T00:02:27.688Z,94765.66
2022-08-23T00:05:08.901Z,94763.00
2022-08-23T00:07:43.945Z,94760.00
2022-08-23T00:10:16.291Z,94758.50
2022-08-23T00:12:46.024Z,94762.53
2022-08-23T00:15:16.988Z,94750.22
2022-08-23T00:17:44.045Z,94757.00
2022-08-23T00:20:15.595Z,94759.09
2022-08-23T00:22:42.734Z,94771.03
2022-08-23T00:25:12.934Z,94768.97
2022-08-23T00:27:40.308Z,94768.16
2022-08-23T00:30:12.949Z,94761.03
2022-08-23T00:32:41.382Z,94763.44
2022-08-23T00:35:12.010Z,94754.69
2022-08-23T00:37:39.942Z,94757.56
2022-08-23T00:40:11.128Z,94755.75
2022-08-23T00:43:03.591Z,94767.13
2022-08-23T00:46:04.483Z,94756.78
2022-08-23T00:48:34.797Z,94756.44
2022-08-23T00:51:24.683Z,94760.22
2022-08-23T00:54:00.625Z,94752.53
2022-08-23T00:56:33.189Z,94749.63
2022-08-23T00:59:00.936Z,94753.09
2022-08-23T01:01:28.741Z,94752.53
2022-08-23T01:04:04.511Z,94748.00
2022-08-23T01:06:58.969Z,94742.72
2022-08-23T01:09:26.480Z,94736.63
2022-08-23T01:12:19.133Z,94736.88
2022-08-23T01:15:36.928Z,94750.09
2022-08-23T01:18:08.825Z,94745.16
2022-08-23T01:20:53.268Z,94731.91
2022-08-23T01:23:49.180Z,94721.53
2022-08-23T01:26:21.977Z,94725.22
2022-08-23T01:28:51.773Z,94723.16
2022-08-23T01:31:20.528Z,94710.97
2022-08-23T01:33:58.605Z,94716.59
2022-08-23T01:36:27.019Z,94713.41
2022-08-23T01:38:54.562Z,94720.75
2022-08-23T01:41:22.672Z,94717.63
2022-08-23T01:43:51.380Z,94715.22
2022-08-23T01:46:23.554Z,94715.81
2022-08-23T01:48:52.125Z,94725.34
2022-08-23T01:51:21.440Z,94712.13
2022-08-23T01:53:50.614Z,94716.38
2022-08-23T01:56:38.038Z,94715.31
2022-08-23T01:59:09.899Z,94714.28
2022-08-23T02:01:42.378Z,94716.38
2022-08-23T02:04:09.638Z,94717.75
2022-08-23T02:06:36.880Z,94720.41
2022-08-23T02:09:17.257Z,94720.16
2022-08-23T02:11:47.481Z,94723.16
2022-08-23T02:14:19.523Z,94716.47
2022-08-23T02:17:03.983Z,94717.50
2022-08-23T02:19:38.679Z,94719.38
2022-08-23T02:22:08.367Z,94718.53
2022-08-23T02:24:40.433Z,94714.63
2022-08-23T02:27:08.591Z,94727.06
2022-08-23T02:29:40.039Z,94727.84
2022-08-23T02:32:12.559Z,94733.16
2022-08-23T02:34:41.921Z,94722.22
2022-08-23T02:37:11.269Z,94728.69
2022-08-23T02:39:39.679Z,94730.06
2022-08-23T02:42:11.574Z,94730.59
2022-08-23T02:44:41.884Z,94740.75
2022-08-23T02:47:09.299Z,94724.28
2022-08-23T02:49:39.301Z,94732.00
2022-08-23T02:52:07.449Z,94726.72
2022-08-23T02:54:36.219Z,94724.41
2022-08-23T02:57:03.838Z,94732.22
2022-08-23T02:59:31.735Z,94735.09
2022-08-23T03:01:59.674Z,94743.63
2022-08-23T03:04:32.168Z,94747.66
2022-08-23T03:06:59.230Z,94740.75
2022-08-23T03:09:27.129Z,94739.72
2022-08-23T03:11:54.232Z,94740.97
2022-08-23T03:14:24.710Z,94739.72
2022-08-23T03:16:52.215Z,94739.94
2022-08-23T03:19:21.216Z,94748.34
2022-08-23T03:21:48.460Z,94746.16
2022-08-23T03:24:19.001Z,94749.13
2022-08-23T03:26:46.693Z,94742.25
2022-08-23T03:29:17.673Z,94745.69
2022-08-23T03:32:00.425Z,94756.97
2022-08-23T03:34:29.413Z,94742.72
2022-08-23T03:36:57.665Z,94748.00
2022-08-23T03:39:24.920Z,94744.09
2022-08-23T03:41:52.800Z,94744.66
2022-08-23T03:44:20.252Z,94753.41
2022-08-23T03:46:49.097Z,94751.78
2022-08-23T03:49:16.299Z,94753.97
2022-08-23T03:51:52.394Z,94758.47
2022-08-23T03:54:20.648Z,94754.44
2022-08-23T03:57:03.160Z,94761.34
2022-08-23T03:59:36.533Z,94754.22
2022-08-23T04:02:07.940Z,94758.16
2022-08-23T04:04:35.637Z,94767.47
2022-08-23T04:07:23.113Z,94753.88
2022-08-23T04:09:55.330Z,94759.19
2022-08-23T04:12:25.133Z,94767.13
2022-08-23T04:14:53.728Z,94777.47
2022-08-23T04:17:22.168Z,94773.44
2022-08-23T04:19:50.832Z,94772.88
2022-08-23T04:22:20.523Z,94775.63
2022-08-23T04:24:48.451Z,94774.59
2022-08-23T04:27:16.961Z,94780.69
2022-08-23T04:29:45.845Z,94781.25
2022-08-23T04:32:14.839Z,94785.31
2022-08-23T04:34:53.429Z,94775.75
2022-08-23T04:37:20.952Z,94782.66
2022-08-23T04:40:07.152Z,94787.13
2022-08-23T04:42:41.067Z,94781.84
2022-08-23T04:45:09.176Z,94775.25
2022-08-23T04:47:41.897Z,94773.88
2022-08-23T04:50:11.193Z,94787.47
2022-08-23T04:52:56.762Z,94790.13
2022-08-23T04:55:24.432Z,94790.91
2022-08-23T04:58:01.741Z,94789.09
2022-08-23T05:00:33.917Z,94799.19
2022-08-23T05:03:02.314Z,94799.00
2022-08-23T05:05:29.808Z,94797.97
2022-08-23T05:07:56.831Z,94795.06
2022-08-23T05:10:24.550Z,94795.84
2022-08-23T05:12:54.940Z,94796.09
2022-08-23T05:15:22.981Z,94793.22
2022-08-23T05:17:57.689Z,94793.78
2022-08-23T05:20:24.904Z,94795.97
2022-08-23T05:22:51.972Z,94795.16
2022-08-23T05:25:52.408Z,94798.06
2022-08-23T05:28:45.188Z,94793.53
2022-08-23T05:31:23.087Z,94791.47
2022-08-23T05:33:52.935Z,94801.25
2022-08-23T05:36:47.643Z,94794.03
2022-08-23T05:39:28.737Z,94811.06
2022-08-23T05:42:09.083Z,94810.25
2022-08-23T05:44:37.786Z,94812.91
2022-08-23T05:47:11.147Z,94814.97
2022-08-23T05:49:59.342Z,94815.78
2022-08-23T05:52:29.772Z,94817.16
2022-08-23T05:54:57.026Z,94812.09
2022-08-23T05:57:42.627Z,94824.63
2022-08-23T06:00:14.313Z,94831.31
2022-08-23T06:02:49.497Z,94822.00
2022-08-23T06:05:19.641Z,94829.69
2022-08-23T06:07:49.360Z,94830.84
2022-08-23T06:10:20.489Z,94829.38
2022-08-23T06:12:53.326Z,94827.50
2022-08-23T06:15:22.353Z,94844.22
2022-08-23T06:17:49.658Z,94833.63
2022-08-23T06:20:17.256Z,94838.13
2022-08-23T06:23:02.187Z,94837.31
2022-08-23T06:25:29.521Z,94831.22
2022-08-23T06:28:07.030Z,94832.03
2022-08-23T06:30:39.255Z,94836.16
2022-08-23T06:33:13.943Z,94838.78
2022-08-23T06:36:13.145Z,94841.78
2022-08-23T06:38:57.040Z,94846.63
2022-08-23T06:41:46.022Z,94842.94
2022-08-23T06:44:28.519Z,94848.00
2022-08-23T06:47:02.689Z,94845.34
2022-08-23T06:49:29.890Z,94849.38
2022-08-23T06:52:06.084Z,94844.91
2022-08-23T06:55:08.599Z,94846.16
2022-08-23T06:57:52.276Z,94847.75
2022-08-23T07:00:38.020Z,94859.41
2022-08-23T07:03:24.109Z,94848.25
2022-08-23T07:06:23.660Z,94855.94
2022-08-23T07:08:51.563Z,94851.00
2022-08-23T07:11:21.624Z,94855.81
2022-08-23T07:13:49.213Z,94860.19
2022-08-23T07:16:18.264Z,94861.31
2022-08-23T07:18:49.562Z,94868.34
2022-08-23T07:21:19.560Z,94860.47
2022-08-23T07:23:46.846Z,94863.47
2022-08-23T07:26:16.557Z,94867.03
2022-08-23T07:28:44.572Z,94870.81
2022-08-23T07:31:23.567Z,94868.16
2022-08-23T07:33:52.038Z,94874.28
2022-08-23T07:36:23.796Z,94876.69
2022-08-23T07:38:53.130Z,94873.00
2022-08-23T07:41:21.169Z,94875.97
2022-08-23T07:43:49.076Z,94883.94
2022-08-23T07:46:16.573Z,94885.31
2022-08-23T07:48:53.957Z,94882.75
2022-08-23T07:51:31.691Z,94884.38
2022-08-23T07:54:00.097Z,94868.44
2022-08-23T07:56:27.065Z,94876.75
2022-08-23T07:59:07.868Z,94878.09
2022-08-23T08:01:43.679Z,94893.00
2022-08-23T08:04:12.503Z,94890.34
2022-08-23T08:06:56.131Z,94891.69
2022-08-23T08:09:34.790Z,94904.38
2022-08-23T08:12:02.143Z,94905.69
2022-08-23T08:14:31.765Z,94909.69
2022-08-23T08:17:00.641Z,94909.16
2022-08-23T08:19:46.750Z,94912.59
2022-08-23T08:22:29.252Z,94911.56
2022-08-23T08:25:12.068Z,94915.25
2022-08-23T08:27:42.893Z,94915.00
2022-08-23T08:30:11.980Z,94916.38
2022-08-23T08:32:46.939Z,94924.44
2022-08-23T08:35:15.325Z,94919.22
2022-08-23T08:37:42.732Z,94925.13
2022-08-23T08:40:11.630Z,94925.41
2022-08-23T08:43:19.933Z,94920.13
2022-08-23T08:46:25.925Z,94916.56
2022-08-23T08:48:57.901Z,94921.72
2022-08-23T08:52:14.976Z,94932.97
2022-08-23T08:54:48.145Z,94928.81
2022-08-23T08:57:22.666Z,94931.31
2022-08-23T09:00:02.494Z,94929.56
2022-08-23T09:02:36.342Z,94928.50
2022-08-23T09:05:31.550Z,94934.63
2022-08-23T09:08:41.718Z,94936.06
2022-08-23T09:11:27.372Z,94947.03
2022-08-23T09:13:57.267Z,94932.69
2022-08-23T09:16:30.580Z,94941.47
2022-08-23T09:19:00.135Z,94944.38
2022-08-23T09:21:28.334Z,94947.53
2022-08-23T09:24:00.228Z,94950.16
2022-08-23T09:26:39.101Z,94944.28
2022-08-23T09:29:28.976Z,94953.03
2022-08-23T09:32:02.597Z,94959.41
2022-08-23T09:34:34.732Z,94963.66
2022-08-23T09:37:22.876Z,94955.38
2022-08-23T09:39:57.190Z,94955.16
2022-08-23T09:42:31.471Z,94954.91
2022-08-23T09:44:59.917Z,94961.34
2022-08-23T09:47:44.375Z,94950.72
2022-08-23T09:50:23.218Z,94951.75
2022-08-23T09:52:55.743Z,94949.44
2022-08-23T09:55:40.160Z,94958.22
2022-08-23T09:58:18.799Z,94958.28
2022-08-23T10:01:07.375Z,94962.06
2022-08-23T10:03:34.893Z,94965.06
2022-08-23T10:06:31.413Z,94971.25
2022-08-23T10:09:05.708Z,94972.06
2022-08-23T10:11:41.969Z,94975.03
2022-08-23T10:14:17.194Z,94977.69
2022-08-23T10:17:08.153Z,94981.09
2022-08-23T10:20:05.578Z,94988.97
2022-08-23T10:23:06.264Z,94990.25
2022-08-23T10:26:00.001Z,94983.56
2022-08-23T10:29:14.497Z,94988.09
2022-08-23T10:32:18.110Z,94987.50
2022-08-23T10:35:20.702Z,94989.06
2022-08-23T10:38:19.978Z,94996.44
2022-08-23T10:41:14.255Z,94992.41
2022-08-23T10:44:13.892Z,95003.63
2022-08-23T10:46:55.273Z,94998.75
2022-08-23T10:49:24.291Z,94991.59
2022-08-23T10:51:52.650Z,94998.84
2022-08-23T10:54:45.985Z,94993.00
2022-08-23T10:57:20.376Z,94993.06
2022-08-23T10:59:50.725Z,94998.94
2022-08-23T11:02:34.622Z,95001.59
2022-08-23T11:05:28.212Z,95007.16
2022-08-23T11:08:07.273Z,95002.88
2022-08-23T11:10:39.262Z,95011.09
2022-08-23T11:13:13.338Z,95008.94
2022-08-23T11:16:21.468Z,95016.06
2022-08-23T11:18:51.329Z,95012.84
2022-08-23T11:21:33.650Z,95021.88
2022-08-23T11:24:06.110Z,95017.59
2022-08-23T11:26:37.993Z,95015.50
2022-08-23T11:29:10.676Z,95020.25
2022-08-23T11:31:48.807Z,95014.38
2022-08-23T11:34:42.781Z,95016.31
2022-08-23T11:37:19.963Z,95020.09
2022-08-23T11:39:57.741Z,95017.78
2022-08-23T11:42:30.026Z,95015.19
2022-08-23T11:44:58.124Z,95017.97
2022-08-23T11:47:40.573Z,95020.13
2022-08-23T11:50:33.911Z,95020.44
2022-08-23T11:53:26.196Z,95013.84
2022-08-23T11:56:28.388Z,95018.44
2022-08-23T11:59:26.220Z,95017.66
2022-08-23T12:01:53.383Z,95020.84
2022-08-23T12:04:47.377Z,95019.91
2022-08-23T12:07:14.491Z,95022.00
2022-08-23T12:09:41.699Z,95020.78
2022-08-23T12:12:36.159Z,95025.53
2022-08-23T12:15:12.023Z,95026.69
2022-08-23T12:17:42.113Z,95038.72
2022-08-23T12:20:16.468Z,95037.06
2022-08-23T12:22:59.618Z,95031.75
2022-08-23T12:25:29.530Z,95042.16
2022-08-23T12:28:27.531Z,95039.16
2022-08-23T12:31:20.532Z,95039.16
2022-08-23T12:34:21.308Z,95031.41
2022-08-23T12:36:58.854Z,95045.28
2022-08-23T12:39:36.060Z,95043.53
2022-08-23T12:42:17.516Z,95053.69
2022-08-23T12:44:47.505Z,95043.13
2022-08-23T12:47:21.116Z,95045.88
2022-08-23T12:50:10.271Z,95048.13
2022-08-23T12:52:38.428Z,95038.13
2022-08-23T12:55:19.487Z,95046.81
2022-08-23T12:57:56.347Z,95038.13
2022-08-23T13:00:38.232Z,95040.69
2022-08-23T13:03:13.446Z,95032.19
2022-08-23T13:05:56.616Z,95046.06
2022-08-23T13:09:14.149Z,95041.00
2022-08-23T13:11:43.397Z,95042.16
2022-08-23T13:14:37.111Z,95047.59
2022-08-23T13:17:25.046Z,95040.44
2022-08-23T13:20:10.705Z,95043.44
2022-08-23T13:23:00.519Z,95044.47
2022-08-23T13:25:35.065Z,95042.38
2022-08-23T13:28:26.460Z,95037.63
2022-08-23T13:31:08.459Z,95044.88
2022-08-23T13:33:36.508Z,95049.25
2022-08-23T13:36:14.082Z,95048.25
2022-08-23T13:38:42.455Z,95060.78
2022-08-23T13:41:25.718Z,95049.91
2022-08-23T13:43:52.869Z,95055.56
2022-08-23T13:46:32.682Z,95043.84
2022-08-23T13:49:10.689Z,95052.44
2022-08-23T13:52:33.496Z,95046.63
2022-08-23T13:54:53.067Z,95039.19
2022-08-23T13:57:21.572Z,95041.03
2022-08-23T13:59:54.382Z,95045.06
2022-08-23T14:02:23.829Z,95044.25
2022-08-23T14:04:51.579Z,95046.13
2022-08-23T14:07:19.301Z,95050.34
2022-08-23T14:09:46.452Z,95040.72
2022-08-23T14:12:18.669Z,95044.75
2022-08-23T14:14:46.499Z,95049.84
2022-08-23T14:17:16.497Z,95048.22
2022-08-23T14:22:35.688Z,95046.66
2022-08-23T14:25:03.010Z,95040.03
2022-08-23T14:27:30.612Z,95049.94
2022-08-23T14:29:58.165Z,95036.84
2022-08-23T14:32:25.618Z,95047.53
2022-08-23T14:34:52.729Z,95049.16
2022-08-23T14:38:00.855Z,95051.81
2022-08-23T14:40:09.442Z,95052.81
2022-08-23T14:42:36.750Z,95052.50
2022-08-23T14:45:05.452Z,95051.16
2022-08-23T14:47:35.468Z,95055.34
2022-08-23T14:50:06.565Z,95057.22
2022-08-23T14:52:41.647Z,95056.09
2022-08-23T14:55:09.668Z,95060.06
2022-08-23T14:57:36.780Z,95066.94
2022-08-23T15:00:08.774Z,95062.34
2022-08-23T15:02:36.923Z,95055.66
2022-08-23T15:05:04.594Z,95064.44
2022-08-23T15:07:32.021Z,95057.44
2022-08-23T15:09:59.358Z,95061.47
2022-08-23T15:15:22.023Z,95065.75
2022-08-23T15:17:58.847Z,95071.59
2022-08-23T15:20:31.904Z,95069.97
2022-08-23T15:23:00.436Z,95068.34
2022-08-23T15:25:32.007Z,95068.03
2022-08-23T15:28:01.911Z,95066.91
2022-08-23T15:30:30.383Z,95070.03
2022-08-23T15:33:00.975Z,95069.25
2022-08-23T15:35:29.986Z,95079.31
2022-08-23T15:37:57.409Z,95071.59
2022-08-23T15:40:26.018Z,95083.84
2022-08-23T15:42:53.694Z,95085.69
2022-08-23T15:45:21.127Z,95079.81
2022-08-23T15:47:56.042Z,95085.94
2022-08-23T15:50:27.400Z,95088.28
2022-08-23T15:52:55.198Z,95085.38
2022-08-23T15:55:22.877Z,95091.22
2022-08-23T15:57:52.949Z,95093.03
2022-08-23T16:00:23.133Z,95080.25
2022-08-23T16:03:18.880Z,95090.88
2022-08-23T16:05:42.861Z,95090.31
2022-08-23T16:08:20.054Z,95083.63
2022-08-23T16:10:47.173Z,95089.44
2022-08-23T16:13:14.646Z,95085.41
2022-08-23T16:15:41.607Z,95090.41
2022-08-23T16:18:08.765Z,95095.19
2022-08-23T16:20:36.409Z,95090.34
2022-08-23T16:23:04.378Z,95091.63
2022-08-23T16:25:31.667Z,95091.88
2022-08-23T16:27:58.907Z,95100.66
2022-08-23T16:30:26.179Z,95103.31
2022-08-23T16:32:53.208Z,95094.53
2022-08-23T16:35:20.573Z,95097.22
2022-08-23T16:37:47.539Z,95092.09
2022-08-23T16:40:15.193Z,95098.81
2022-08-23T16:42:42.657Z,95092.09
2022-08-23T16:45:12.103Z,95097.75
2022-08-23T16:47:44.936Z,95101.22
2022-08-23T16:50:13.396Z,95103.06
2022-08-23T16:52:41.377Z,95098.00
2022-08-23T16:55:11.557Z,95098.81
2022-08-23T16:57:40.341Z,95113.97
2022-08-23T17:00:13.818Z,95107.28
2022-08-23T17:02:43.190Z,95117.34
2022-08-23T17:05:15.709Z,95105.84
2022-08-23T17:07:43.143Z,95117.50
2022-08-23T17:10:13.461Z,95120.19
2022-08-23T17:12:47.215Z,95110.81
2022-08-23T17:15:18.964Z,95116.38
2022-08-23T17:17:48.524Z,95116.03
2022-08-23T17:20:18.882Z,95129.66
2022-08-23T17:22:47.218Z,95126.47
2022-08-23T17:25:15.380Z,95132.81
2022-08-23T17:27:46.363Z,95138.13
2022-08-23T17:30:17.683Z,95134.66
2022-08-23T17:32:47.941Z,95136.28
2022-08-23T17:35:20.029Z,95134.44
2022-08-23T17:37:47.118Z,95137.09
2022-08-23T17:40:27.735Z,95144.81
2022-08-23T17:42:56.817Z,95140.78
2022-08-23T17:45:24.173Z,95136.28
2022-08-23T17:47:51.486Z,95138.94
2022-08-23T17:50:19.816Z,95143.47
2022-08-23T17:52:47.134Z,95153.28
2022-08-23T17:55:18.448Z,95149.03
2022-08-23T17:57:48.393Z,95150.84
2022-08-23T18:00:18.904Z,95157.47
2022-08-23T18:02:46.217Z,95162.22
2022-08-23T18:05:13.728Z,95162.00
2022-08-23T18:07:40.917Z,95164.06
2022-08-23T18:10:11.911Z,95169.97
2022-08-23T18:12:40.924Z,95172.63
2022-08-23T18:15:09.413Z,95172.63
2022-08-23T18:17:39.037Z,95170.50
2022-08-23T18:20:10.117Z,95176.66
2022-08-23T18:22:37.734Z,95171.34
2022-08-23T18:25:10.879Z,95179.06
2022-08-23T18:27:57.009Z,95176.66
2022-08-23T18:30:24.723Z,95179.56
2022-08-23T18:32:52.039Z,95180.34
2022-08-23T18:35:20.343Z,95183.81
2022-08-23T18:37:47.473Z,95181.41
2022-08-23T18:40:15.317Z,95181.41
2022-08-23T18:42:42.353Z,95189.63
2022-08-23T18:45:10.364Z,95185.34
2022-08-23T18:47:38.011Z,95182.94
2022-08-23T18:50:08.746Z,95193.56
2022-08-23T18:52:36.134Z,95185.47
2022-08-23T18:55:05.182Z,95189.22
2022-08-23T18:57:33.412Z,95190.00
2022-08-23T19:00:00.966Z,95192.81
2022-08-23T19:02:28.828Z,95202.50
2022-08-23T19:04:56.286Z,95202.72
2022-08-23T19:07:23.422Z,95203.53
2022-08-23T19:09:51.066Z,95206.44
2022-08-23T19:12:18.368Z,95212.66
2022-08-23T19:14:46.170Z,95222.50
2022-08-23T19:17:14.045Z,95226.03
2022-08-23T19:19:41.041Z,95224.19
2022-08-23T19:22:11.051Z,95230.88
2022-08-23T19:24:38.633Z,95237.81
2022-08-23T19:27:07.788Z,95241.03
2022-08-23T19:29:36.106Z,95239.44
2022-08-23T19:32:04.011Z,95245.53
2022-08-23T19:34:31.269Z,95239.19
2022-08-23T19:37:01.281Z,95245.31
2022-08-23T19:39:29.746Z,95251.19
2022-08-23T19:41:57.537Z,95247.16
2022-08-23T19:44:24.760Z,95257.31
2022-08-23T19:46:52.320Z,95260.56
2022-08-23T19:49:19.620Z,95251.78
2022-08-23T19:51:46.658Z,95262.75
2022-08-23T19:54:13.716Z,95266.44
2022-08-23T19:56:48.581Z,95269.69
2022-08-23T19:59:34.856Z,95264.38
2022-08-23T20:02:03.073Z,95269.69
2022-08-23T20:04:33.081Z,95271.84
2022-08-23T20:07:03.209Z,95268.63
2022-08-23T20:09:33.225Z,95268.63
2022-08-23T20:12:01.067Z,95261.13
2022-08-23T20:14:30.950Z,95263.53
2022-08-23T20:16:58.052Z,95259.06
2022-08-23T20:19:25.845Z,95259.59
2022-08-23T20:22:16.202Z,95264.91
2022-08-23T20:24:51.755Z,95263.53
2022-08-23T20:27:30.918Z,95254.97
2022-08-23T20:30:04.344Z,95260.09
2022-08-23T20:32:32.364Z,95263.69
2022-08-23T20:35:01.285Z,95262.00
2022-08-23T20:37:28.900Z,95258.44
2022-08-23T20:39:55.999Z,95263.50
2022-08-23T20:42:23.554Z,95266.97
2022-08-23T20:44:50.644Z,95264.78
2022-08-23T20:47:18.278Z,95264.53
2022-08-23T20:49:45.673Z,95253.09
2022-08-23T20:52:13.084Z,95269.63
2022-08-23T20:54:40.435Z,95267.78
2022-08-23T20:57:07.718Z,95273.66
2022-08-23T20:59:34.884Z,95261.41
2022-08-23T21:02:02.215Z,95268.09
2022-08-23T21:04:30.164Z,95266.50
2022-08-23T21:06:57.866Z,95265.13
2022-08-23T21:09:29.376Z,95267.31
2022-08-23T21:11:57.523Z,95267.53
2022-08-23T21:14:24.896Z,95272.06
2022-08-23T21:16:52.384Z,95270.19
2022-08-23T21:19:19.851Z,95277.94
2022-08-23T21:21:47.493Z,95275.28
2022-08-23T21:24:15.226Z,95279.53
2022-08-23T21:26:42.981Z,95273.19
2022-08-23T21:29:11.283Z,95267.88
2022-08-23T21:31:39.128Z,95259.88
2022-08-23T21:34:08.345Z,95263.59
2022-08-23T21:36:36.289Z,95264.66
2022-08-23T21:39:04.712Z,95265.91
2022-08-23T21:41:40.917Z,95269.72
2022-08-23T21:44:14.456Z,95266.25
2022-08-23T21:46:43.617Z,95257.47
2022-08-23T21:49:12.483Z,95256.69
2022-08-23T21:51:40.994Z,95248.13
2022-08-23T21:54:10.641Z,95250.53
2022-08-23T21:56:39.259Z,95255.84
2022-08-23T21:59:09.612Z,95257.13
2022-08-23T22:01:37.359Z,95266.72
2022-08-23T22:04:08.070Z,95256.91
2022-08-23T22:06:37.976Z,95254.22
2022-08-23T22:09:09.022Z,95253.69
2022-08-23T22:11:41.682Z,95243.75
2022-08-23T22:14:18.475Z,95245.91
2022-08-23T22:16:45.944Z,95245.38
2022-08-23T22:19:15.212Z,95238.19
2022-08-23T22:21:48.289Z,95240.38
2022-08-23T22:24:16.453Z,95240.59
2022-08-23T22:26:44.336Z,95241.44
2022-08-23T22:29:12.955Z,95240.84
2022-08-23T22:31:41.664Z,95243.50
2022-08-23T22:34:12.360Z,95248.81
2022-08-23T22:36:40.097Z,95245.50
2022-08-23T22:39:07.851Z,95241.56
2022-08-23T22:41:35.536Z,95240.19
2022-08-23T22:44:03.800Z,95243.41
2022-08-23T22:46:33.952Z,95240.19
2022-08-23T22:49:01.739Z,95242.03
2022-08-23T22:51:32.437Z,95247.38
2022-08-23T22:54:07.000Z,95243.66
2022-08-23T22:56:50.627Z,95242.38
2022-08-23T22:59:22.311Z,95250.56
2022-08-23T23:01:57.723Z,95242.84
2022-08-23T23:04:26.596Z,95236.72
2022-08-23T23:06:55.357Z,95237.78
2022-08-23T23:09:22.757Z,95241.22
2022-08-23T23:11:52.625Z,95244.47
2022-08-23T23:14:21.396Z,95244.91
2022-08-23T23:16:50.034Z,95233.75
2022-08-23T23:19:36.483Z,95231.28
2022-08-23T23:22:04.388Z,95232.38
2022-08-23T23:24:36.280Z,95231.53
2022-08-23T23:27:05.315Z,95236.06
2022-08-23T23:29:32.543Z,95228.78
2022-08-23T23:32:00.401Z,95233.06
2022-08-23T23:34:28.305Z,95236.75
2022-08-23T23:36:59.423Z,95233.84
2022-08-23T23:39:27.620Z,95234.34
2022-08-23T23:41:55.044Z,95233.31
2022-08-23T23:44:24.309Z,95223.81
2022-08-23T23:46:59.904Z,95230.06
2022-08-23T23:49:32.190Z,95230.88
2022-08-23T23:52:03.415Z,95225.75
2022-08-23T23:54:31.533Z,95215.94
2022-08-23T23:56:58.929Z,95210.06
2022-08-23T23:59:26.453Z,95200.94
